sensor_id;sensor_type;location;lat;lon;timestamp;temperature;humidity
73643;DHT22;61938;48.652;9.292;2022-08-21T00:01:44;14.10;99.90
73643;DHT22;61938;48.652;9.292;2022-08-21T00:04:11;14.00;99.90
73643;DHT22;61938;48.652;9.292;2022-08-21T00:06:37;14.00;99.90
73643;DHT22;61938;48.652;9.292;2022-08-21T00:09:05;14.00;99.90
73643;DHT22;61938;48.652;9.292;2022-08-21T00:11:31;14.00;99.90
73643;DHT22;61938;48.652;9.292;2022-08-21T00:13:57;14.00;99.90
73643;DHT22;61938;48.652;9.292;2022-08-21T00:16:23;14.00;99.90
73643;DHT22;61938;48.652;9.292;2022-08-21T00:18:50;14.00;99.90
73643;DHT22;61938;48.652;9.292;2022-08-21T00:21:16;14.10;99.90
73643;DHT22;61938;48.652;9.292;2022-08-21T00:23:42;14.10;99.90
73643;DHT22;61938;48.652;9.292;2022-08-21T00:26:08;14.00;99.90
73643;DHT22;61938;48.652;9.292;2022-08-21T00:28:34;13.90;99.90
73643;DHT22;61938;48.652;9.292;2022-08-21T00:31:00;13.90;99.90
73643;DHT22;61938;48.652;9.292;2022-08-21T00:33:29;13.90;99.90
73643;DHT22;61938;48.652;9.292;2022-08-21T00:35:55;13.80;99.90
73643;DHT22;61938;48.652;9.292;2022-08-21T00:38:21;13.80;99.90
73643;DHT22;61938;48.652;9.292;2022-08-21T00:40:51;13.80;99.90
73643;DHT22;61938;48.652;9.292;2022-08-21T00:43:22;13.80;99.90
73643;DHT22;61938;48.652;9.292;2022-08-21T00:45:48;13.80;99.90
73643;DHT22;61938;48.652;9.292;2022-08-21T00:48:14;13.70;99.90
73643;DHT22;61938;48.652;9.292;2022-08-21T00:50:46;13.70;99.90
73643;DHT22;61938;48.652;9.292;2022-08-21T00:53:14;13.80;99.90
73643;DHT22;61938;48.652;9.292;2022-08-21T00:55:41;13.70;99.90
73643;DHT22;61938;48.652;9.292;2022-08-21T00:58:08;13.70;99.90
73643;DHT22;61938;48.652;9.292;2022-08-21T01:00:39;13.70;99.90
73643;DHT22;61938;48.652;9.292;2022-08-21T01:03:20;13.60;99.90
73643;DHT22;61938;48.652;9.292;2022-08-21T01:05:46;13.60;99.90
73643;DHT22;61938;48.652;9.292;2022-08-21T01:08:14;13.50;99.90
73643;DHT22;61938;48.652;9.292;2022-08-21T01:10:42;13.50;99.90
73643;DHT22;61938;48.652;9.292;2022-08-21T01:13:10;13.50;99.90
73643;DHT22;61938;48.652;9.292;2022-08-21T01:15:42;13.40;99.90
73643;DHT22;61938;48.652;9.292;2022-08-21T01:18:09;13.40;99.90
73643;DHT22;61938;48.652;9.292;2022-08-21T01:20:37;13.40;99.90
73643;DHT22;61938;48.652;9.292;2022-08-21T01:23:04;13.40;99.90
73643;DHT22;61938;48.652;9.292;2022-08-21T01:25:31;13.40;99.90
73643;DHT22;61938;48.652;9.292;2022-08-21T01:28:00;13.40;99.90
73643;DHT22;61938;48.652;9.292;2022-08-21T01:30:28;13.40;99.90
73643;DHT22;61938;48.652;9.292;2022-08-21T01:32:55;13.40;99.90
73643;DHT22;61938;48.652;9.292;2022-08-21T01:35:21;13.40;99.90
73643;DHT22;61938;48.652;9.292;2022-08-21T01:37:48;13.30;99.90
73643;DHT22;61938;48.652;9.292;2022-08-21T01:40:15;13.30;99.90
73643;DHT22;61938;48.652;9.292;2022-08-21T01:42:43;13.30;99.90
73643;DHT22;61938;48.652;9.292;2022-08-21T01:45:10;13.40;99.90
73643;DHT22;61938;48.652;9.292;2022-08-21T01:47:36;13.40;99.90
73643;DHT22;61938;48.652;9.292;2022-08-21T01:50:04;13.50;99.90
73643;DHT22;61938;48.652;9.292;2022-08-21T01:52:31;13.40;99.90
73643;DHT22;61938;48.652;9.292;2022-08-21T01:54:56;13.40;99.90
73643;DHT22;61938;48.652;9.292;2022-08-21T01:57:23;13.40;99.90
73643;DHT22;61938;48.652;9.292;2022-08-21T01:59:49;13.50;99.90
73643;DHT22;61938;48.652;9.292;2022-08-21T02:02:15;13.40;99.90
73643;DHT22;61938;48.652;9.292;2022-08-21T02:04:41;13.40;99.90
73643;DHT22;61938;48.652;9.292;2022-08-21T02:07:06;13.40;99.90
73643;DHT22;61938;48.652;9.292;2022-08-21T02:09:32;13.40;99.90
73643;DHT22;61938;48.652;9.292;2022-08-21T02:11:59;13.40;99.90
73643;DHT22;61938;48.652;9.292;2022-08-21T02:14:25;13.40;99.90
73643;DHT22;61938;48.652;9.292;2022-08-21T02:16:51;13.40;99.90
73643;DHT22;61938;48.652;9.292;2022-08-21T02:19:17;13.30;99.90
73643;DHT22;61938;48.652;9.292;2022-08-21T02:21:43;13.30;99.90
73643;DHT22;61938;48.652;9.292;2022-08-21T02:24:10;13.30;99.90
73643;DHT22;61938;48.652;9.292;2022-08-21T02:26:36;13.20;99.90
73643;DHT22;61938;48.652;9.292;2022-08-21T02:29:03;13.20;99.90
73643;DHT22;61938;48.652;9.292;2022-08-21T02:31:30;13.10;99.90
73643;DHT22;61938;48.652;9.292;2022-08-21T02:33:56;13.00;99.90
73643;DHT22;61938;48.652;9.292;2022-08-21T02:36:22;13.00;99.90
73643;DHT22;61938;48.652;9.292;2022-08-21T02:38:48;13.00;99.90
73643;DHT22;61938;48.652;9.292;2022-08-21T02:41:17;13.00;99.90
73643;DHT22;61938;48.652;9.292;2022-08-21T02:43:43;12.90;99.90
73643;DHT22;61938;48.652;9.292;2022-08-21T02:46:11;12.90;99.90
73643;DHT22;61938;48.652;9.292;2022-08-21T02:48:38;12.80;99.90
73643;DHT22;61938;48.652;9.292;2022-08-21T02:51:06;12.70;99.90
73643;DHT22;61938;48.652;9.292;2022-08-21T02:53:33;12.70;99.90
73643;DHT22;61938;48.652;9.292;2022-08-21T02:56:02;12.70;99.90
73643;DHT22;61938;48.652;9.292;2022-08-21T02:58:31;12.70;99.90
73643;DHT22;61938;48.652;9.292;2022-08-21T03:00:57;12.70;99.90
73643;DHT22;61938;48.652;9.292;2022-08-21T03:03:24;12.70;99.90
73643;DHT22;61938;48.652;9.292;2022-08-21T03:05:51;12.70;99.90
73643;DHT22;61938;48.652;9.292;2022-08-21T03:08:17;12.70;99.90
73643;DHT22;61938;48.652;9.292;2022-08-21T03:10:47;12.60;99.90
73643;DHT22;61938;48.652;9.292;2022-08-21T03:13:14;12.70;99.90
73643;DHT22;61938;48.652;9.292;2022-08-21T03:15:41;12.70;99.90
73643;DHT22;61938;48.652;9.292;2022-08-21T03:18:07;12.70;99.90
73643;DHT22;61938;48.652;9.292;2022-08-21T03:20:34;12.70;99.90
73643;DHT22;61938;48.652;9.292;2022-08-21T03:23:01;12.60;99.90
73643;DHT22;61938;48.652;9.292;2022-08-21T03:25:29;12.60;99.90
73643;DHT22;61938;48.652;9.292;2022-08-21T03:27:58;12.60;99.90
73643;DHT22;61938;48.652;9.292;2022-08-21T03:30:23;12.60;99.90
73643;DHT22;61938;48.652;9.292;2022-08-21T03:32:49;12.60;99.90
73643;DHT22;61938;48.652;9.292;2022-08-21T03:35:17;12.50;99.90
73643;DHT22;61938;48.652;9.292;2022-08-21T03:37:44;12.50;99.90
73643;DHT22;61938;48.652;9.292;2022-08-21T03:40:13;12.50;99.90
73643;DHT22;61938;48.652;9.292;2022-08-21T03:42:39;12.50;99.90
73643;DHT22;61938;48.652;9.292;2022-08-21T03:45:05;12.50;99.90
73643;DHT22;61938;48.652;9.292;2022-08-21T03:47:31;12.50;99.90
73643;DHT22;61938;48.652;9.292;2022-08-21T03:49:57;12.50;99.90
73643;DHT22;61938;48.652;9.292;2022-08-21T03:52:23;12.50;99.90
73643;DHT22;61938;48.652;9.292;2022-08-21T03:54:49;12.50;99.90
73643;DHT22;61938;48.652;9.292;2022-08-21T03:57:16;12.50;99.90
73643;DHT22;61938;48.652;9.292;2022-08-21T03:59:42;12.50;99.90
73643;DHT22;61938;48.652;9.292;2022-08-21T04:02:09;12.50;99.90
73643;DHT22;61938;48.652;9.292;2022-08-21T04:04:36;12.50;99.90
73643;DHT22;61938;48.652;9.292;2022-08-21T04:07:03;12.40;99.90
73643;DHT22;61938;48.652;9.292;2022-08-21T04:09:29;12.40;99.90
73643;DHT22;61938;48.652;9.292;2022-08-21T04:11:56;12.50;99.90
73643;DHT22;61938;48.652;9.292;2022-08-21T04:14:22;12.50;99.90
73643;DHT22;61938;48.652;9.292;2022-08-21T04:16:48;12.50;99.90
73643;DHT22;61938;48.652;9.292;2022-08-21T04:19:14;12.50;99.90
73643;DHT22;61938;48.652;9.292;2022-08-21T04:21:41;12.50;99.90
73643;DHT22;61938;48.652;9.292;2022-08-21T04:24:08;12.40;99.90
73643;DHT22;61938;48.652;9.292;2022-08-21T04:26:36;12.30;99.90
73643;DHT22;61938;48.652;9.292;2022-08-21T04:29:03;12.30;99.90
73643;DHT22;61938;48.652;9.292;2022-08-21T04:31:32;12.20;99.90
73643;DHT22;61938;48.652;9.292;2022-08-21T04:33:59;12.30;99.90
73643;DHT22;61938;48.652;9.292;2022-08-21T04:36:25;12.20;99.90
73643;DHT22;61938;48.652;9.292;2022-08-21T04:38:50;12.20;99.90
73643;DHT22;61938;48.652;9.292;2022-08-21T04:41:17;12.20;99.90
73643;DHT22;61938;48.652;9.292;2022-08-21T04:43:42;12.20;99.90
73643;DHT22;61938;48.652;9.292;2022-08-21T04:46:08;12.20;99.90
73643;DHT22;61938;48.652;9.292;2022-08-21T04:48:35;12.20;99.90
73643;DHT22;61938;48.652;9.292;2022-08-21T04:51:15;12.20;99.90
73643;DHT22;61938;48.652;9.292;2022-08-21T04:53:45;12.20;99.90
73643;DHT22;61938;48.652;9.292;2022-08-21T04:56:26;12.30;99.90
73643;DHT22;61938;48.652;9.292;2022-08-21T04:58:55;12.30;99.90
73643;DHT22;61938;48.652;9.292;2022-08-21T05:01:24;12.30;99.90
73643;DHT22;61938;48.652;9.292;2022-08-21T05:03:55;12.30;99.90
73643;DHT22;61938;48.652;9.292;2022-08-21T05:06:22;12.30;99.90
73643;DHT22;61938;48.652;9.292;2022-08-21T05:08:51;12.30;99.90
73643;DHT22;61938;48.652;9.292;2022-08-21T05:11:18;12.30;99.90
73643;DHT22;61938;48.652;9.292;2022-08-21T05:13:45;12.40;99.90
73643;DHT22;61938;48.652;9.292;2022-08-21T05:16:11;12.40;99.90
73643;DHT22;61938;48.652;9.292;2022-08-21T05:18:37;12.40;99.90
73643;DHT22;61938;48.652;9.292;2022-08-21T05:21:03;12.50;99.90
73643;DHT22;61938;48.652;9.292;2022-08-21T05:23:29;12.50;99.90
73643;DHT22;61938;48.652;9.292;2022-08-21T05:25:55;12.60;99.90
73643;DHT22;61938;48.652;9.292;2022-08-21T05:28:21;12.70;99.90
73643;DHT22;61938;48.652;9.292;2022-08-21T05:30:47;12.70;99.90
73643;DHT22;61938;48.652;9.292;2022-08-21T05:33:13;12.80;99.90
73643;DHT22;61938;48.652;9.292;2022-08-21T05:35:38;12.80;99.90
73643;DHT22;61938;48.652;9.292;2022-08-21T05:38:05;12.90;99.90
73643;DHT22;61938;48.652;9.292;2022-08-21T05:40:31;12.90;99.90
73643;DHT22;61938;48.652;9.292;2022-08-21T05:42:57;12.90;99.90
73643;DHT22;61938;48.652;9.292;2022-08-21T05:45:26;13.00;99.90
73643;DHT22;61938;48.652;9.292;2022-08-21T05:47:52;13.10;99.90
73643;DHT22;61938;48.652;9.292;2022-08-21T05:50:18;13.10;99.90
73643;DHT22;61938;48.652;9.292;2022-08-21T05:52:44;13.20;99.90
73643;DHT22;61938;48.652;9.292;2022-08-21T05:55:10;13.30;99.90
73643;DHT22;61938;48.652;9.292;2022-08-21T05:57:36;13.40;99.90
73643;DHT22;61938;48.652;9.292;2022-08-21T06:00:03;13.50;99.90
73643;DHT22;61938;48.652;9.292;2022-08-21T06:02:29;13.50;99.90
73643;DHT22;61938;48.652;9.292;2022-08-21T06:04:56;13.60;99.90
73643;DHT22;61938;48.652;9.292;2022-08-21T06:07:22;13.70;99.90
73643;DHT22;61938;48.652;9.292;2022-08-21T06:09:48;13.80;99.90
73643;DHT22;61938;48.652;9.292;2022-08-21T06:12:14;13.90;99.90
73643;DHT22;61938;48.652;9.292;2022-08-21T06:14:41;14.00;99.90
73643;DHT22;61938;48.652;9.292;2022-08-21T06:17:10;14.00;99.90
73643;DHT22;61938;48.652;9.292;2022-08-21T06:19:37;14.10;99.90
73643;DHT22;61938;48.652;9.292;2022-08-21T06:22:03;14.30;99.90
73643;DHT22;61938;48.652;9.292;2022-08-21T06:24:29;14.40;99.90
73643;DHT22;61938;48.652;9.292;2022-08-21T06:26:56;14.50;99.90
73643;DHT22;61938;48.652;9.292;2022-08-21T06:29:23;14.60;99.90
73643;DHT22;61938;48.652;9.292;2022-08-21T06:31:50;14.70;99.90
73643;DHT22;61938;48.652;9.292;2022-08-21T06:34:17;14.70;99.90
73643;DHT22;61938;48.652;9.292;2022-08-21T06:36:43;14.80;99.90
73643;DHT22;61938;48.652;9.292;2022-08-21T06:39:09;14.90;99.90
73643;DHT22;61938;48.652;9.292;2022-08-21T06:41:34;15.00;99.90
73643;DHT22;61938;48.652;9.292;2022-08-21T06:44:00;15.00;99.90
73643;DHT22;61938;48.652;9.292;2022-08-21T06:46:29;15.20;99.90
73643;DHT22;61938;48.652;9.292;2022-08-21T06:48:55;15.30;99.90
73643;DHT22;61938;48.652;9.292;2022-08-21T06:51:22;15.50;99.90
73643;DHT22;61938;48.652;9.292;2022-08-21T06:53:48;15.60;99.90
73643;DHT22;61938;48.652;9.292;2022-08-21T06:56:14;15.80;99.90
73643;DHT22;61938;48.652;9.292;2022-08-21T06:58:40;15.90;99.90
73643;DHT22;61938;48.652;9.292;2022-08-21T07:01:05;16.00;99.90
73643;DHT22;61938;48.652;9.292;2022-08-21T07:03:34;16.10;99.90
73643;DHT22;61938;48.652;9.292;2022-08-21T07:06:01;16.10;99.90
73643;DHT22;61938;48.652;9.292;2022-08-21T07:08:28;16.20;99.90
73643;DHT22;61938;48.652;9.292;2022-08-21T07:10:57;16.30;99.90
73643;DHT22;61938;48.652;9.292;2022-08-21T07:13:23;16.30;99.90
73643;DHT22;61938;48.652;9.292;2022-08-21T07:15:49;16.50;99.90
73643;DHT22;61938;48.652;9.292;2022-08-21T07:18:15;16.60;99.90
73643;DHT22;61938;48.652;9.292;2022-08-21T07:20:42;16.70;99.90
73643;DHT22;61938;48.652;9.292;2022-08-21T07:23:13;16.80;99.90
73643;DHT22;61938;48.652;9.292;2022-08-21T07:25:40;16.90;99.90
73643;DHT22;61938;48.652;9.292;2022-08-21T07:28:05;17.00;99.90
73643;DHT22;61938;48.652;9.292;2022-08-21T07:30:31;17.10;99.90
73643;DHT22;61938;48.652;9.292;2022-08-21T07:32:57;17.20;99.90
73643;DHT22;61938;48.652;9.292;2022-08-21T07:35:23;17.30;99.90
73643;DHT22;61938;48.652;9.292;2022-08-21T07:37:49;17.50;99.90
73643;DHT22;61938;48.652;9.292;2022-08-21T07:40:16;17.50;99.90
73643;DHT22;61938;48.652;9.292;2022-08-21T07:42:44;17.50;99.90
73643;DHT22;61938;48.652;9.292;2022-08-21T07:45:11;17.60;99.90
73643;DHT22;61938;48.652;9.292;2022-08-21T07:47:37;17.70;99.90
73643;DHT22;61938;48.652;9.292;2022-08-21T07:50:05;17.70;99.90
73643;DHT22;61938;48.652;9.292;2022-08-21T07:52:31;17.80;99.90
73643;DHT22;61938;48.652;9.292;2022-08-21T07:54:58;17.90;99.90
73643;DHT22;61938;48.652;9.292;2022-08-21T07:57:24;18.00;99.90
73643;DHT22;61938;48.652;9.292;2022-08-21T07:59:49;18.10;99.90
73643;DHT22;61938;48.652;9.292;2022-08-21T08:02:27;18.20;99.90
73643;DHT22;61938;48.652;9.292;2022-08-21T08:04:52;18.30;99.90
73643;DHT22;61938;48.652;9.292;2022-08-21T08:07:18;18.40;99.90
73643;DHT22;61938;48.652;9.292;2022-08-21T08:09:45;18.50;99.90
73643;DHT22;61938;48.652;9.292;2022-08-21T08:12:11;18.70;99.90
73643;DHT22;61938;48.652;9.292;2022-08-21T08:14:37;18.70;99.90
73643;DHT22;61938;48.652;9.292;2022-08-21T08:17:02;18.90;99.90
73643;DHT22;61938;48.652;9.292;2022-08-21T08:19:29;19.00;99.90
73643;DHT22;61938;48.652;9.292;2022-08-21T08:21:55;19.20;99.90
73643;DHT22;61938;48.652;9.292;2022-08-21T08:24:21;19.20;99.90
73643;DHT22;61938;48.652;9.292;2022-08-21T08:26:47;19.30;99.90
73643;DHT22;61938;48.652;9.292;2022-08-21T08:29:12;19.40;99.90
73643;DHT22;61938;48.652;9.292;2022-08-21T08:31:38;19.50;99.90
73643;DHT22;61938;48.652;9.292;2022-08-21T08:34:04;19.50;99.90
73643;DHT22;61938;48.652;9.292;2022-08-21T08:36:35;19.70;99.90
73643;DHT22;61938;48.652;9.292;2022-08-21T08:39:03;19.80;99.90
73643;DHT22;61938;48.652;9.292;2022-08-21T08:41:29;19.80;99.90
73643;DHT22;61938;48.652;9.292;2022-08-21T08:44:02;19.90;99.90
73643;DHT22;61938;48.652;9.292;2022-08-21T08:46:54;20.00;99.90
73643;DHT22;61938;48.652;9.292;2022-08-21T08:49:30;20.20;99.90
73643;DHT22;61938;48.652;9.292;2022-08-21T08:52:28;20.20;99.90
73643;DHT22;61938;48.652;9.292;2022-08-21T08:55:02;20.10;99.90
73643;DHT22;61938;48.652;9.292;2022-08-21T08:57:29;20.20;99.90
73643;DHT22;61938;48.652;9.292;2022-08-21T08:59:57;20.40;99.90
73643;DHT22;61938;48.652;9.292;2022-08-21T09:02:24;20.50;99.90
73643;DHT22;61938;48.652;9.292;2022-08-21T09:04:51;20.60;99.90
73643;DHT22;61938;48.652;9.292;2022-08-21T09:12:59;20.90;99.90
73643;DHT22;61938;48.652;9.292;2022-08-21T09:21:08;21.30;99.90
73643;DHT22;61938;48.652;9.292;2022-08-21T09:26:21;21.30;99.90
73643;DHT22;61938;48.652;9.292;2022-08-21T09:28:53;21.40;99.90
73643;DHT22;61938;48.652;9.292;2022-08-21T09:31:32;21.50;99.90
73643;DHT22;61938;48.652;9.292;2022-08-21T09:34:04;21.70;99.90
73643;DHT22;61938;48.652;9.292;2022-08-21T09:36:50;21.90;99.90
73643;DHT22;61938;48.652;9.292;2022-08-21T09:39:32;22.00;99.90
73643;DHT22;61938;48.652;9.292;2022-08-21T09:42:08;22.10;99.90
73643;DHT22;61938;48.652;9.292;2022-08-21T09:44:37;22.10;99.90
73643;DHT22;61938;48.652;9.292;2022-08-21T09:47:10;22.20;99.90
73643;DHT22;61938;48.652;9.292;2022-08-21T09:49:41;22.30;99.90
73643;DHT22;61938;48.652;9.292;2022-08-21T09:52:18;22.30;99.90
73643;DHT22;61938;48.652;9.292;2022-08-21T09:54:46;22.50;99.90
73643;DHT22;61938;48.652;9.292;2022-08-21T09:57:18;22.50;99.90
73643;DHT22;61938;48.652;9.292;2022-08-21T10:00:15;22.60;99.90
73643;DHT22;61938;48.652;9.292;2022-08-21T10:02:43;22.70;99.90
73643;DHT22;61938;48.652;9.292;2022-08-21T10:05:21;22.70;99.90
73643;DHT22;61938;48.652;9.292;2022-08-21T10:07:48;22.80;99.90
73643;DHT22;61938;48.652;9.292;2022-08-21T10:10:16;22.80;99.90
73643;DHT22;61938;48.652;9.292;2022-08-21T10:15:18;22.80;99.90
73643;DHT22;61938;48.652;9.292;2022-08-21T10:29:24;23.50;99.90
73643;DHT22;61938;48.652;9.292;2022-08-21T10:32:09;23.50;99.90
73643;DHT22;61938;48.652;9.292;2022-08-21T10:34:54;23.40;99.90
73643;DHT22;61938;48.652;9.292;2022-08-21T10:48:05;23.40;99.90
73643;DHT22;61938;48.652;9.292;2022-08-21T10:56:35;23.70;99.90
73643;DHT22;61938;48.652;9.292;2022-08-21T11:10:18;24.00;99.90
73643;DHT22;61938;48.652;9.292;2022-08-21T11:12:49;23.90;99.90
73643;DHT22;61938;48.652;9.292;2022-08-21T11:20:56;24.20;99.90
73643;DHT22;61938;48.652;9.292;2022-08-21T11:24:08;24.00;99.90
73643;DHT22;61938;48.652;9.292;2022-08-21T11:29:35;24.40;99.90
73643;DHT22;61938;48.652;9.292;2022-08-21T11:35:29;24.70;99.90
73643;DHT22;61938;48.652;9.292;2022-08-21T11:38:01;24.60;99.90
73643;DHT22;61938;48.652;9.292;2022-08-21T11:43:34;24.30;99.90
73643;DHT22;61938;48.652;9.292;2022-08-21T11:45:59;24.50;99.90
73643;DHT22;61938;48.652;9.292;2022-08-21T11:51:24;24.60;99.90
73643;DHT22;61938;48.652;9.292;2022-08-21T11:56:52;24.50;99.90
73643;DHT22;61938;48.652;9.292;2022-08-21T11:59:25;24.60;99.90
73643;DHT22;61938;48.652;9.292;2022-08-21T12:01:53;24.90;99.90
73643;DHT22;61938;48.652;9.292;2022-08-21T12:04:28;24.80;99.60
73643;DHT22;61938;48.652;9.292;2022-08-21T12:06:55;24.70;99.90
73643;DHT22;61938;48.652;9.292;2022-08-21T12:14:48;24.60;98.30
73643;DHT22;61938;48.652;9.292;2022-08-21T12:17:24;24.60;99.70
73643;DHT22;61938;48.652;9.292;2022-08-21T12:20:04;24.50;99.90
73643;DHT22;61938;48.652;9.292;2022-08-21T12:22:40;24.50;99.20
73643;DHT22;61938;48.652;9.292;2022-08-21T12:25:10;24.60;99.20
73643;DHT22;61938;48.652;9.292;2022-08-21T12:28:06;24.70;99.90
73643;DHT22;61938;48.652;9.292;2022-08-21T12:30:36;24.80;97.80
73643;DHT22;61938;48.652;9.292;2022-08-21T12:33:31;24.90;98.70
73643;DHT22;61938;48.652;9.292;2022-08-21T12:41:24;25.50;99.40
73643;DHT22;61938;48.652;9.292;2022-08-21T12:43:57;25.40;96.60
73643;DHT22;61938;48.652;9.292;2022-08-21T12:46:35;25.30;96.00
73643;DHT22;61938;48.652;9.292;2022-08-21T12:49:14;25.50;95.80
73643;DHT22;61938;48.652;9.292;2022-08-21T12:51:55;25.50;94.70
73643;DHT22;61938;48.652;9.292;2022-08-21T12:54:22;25.50;94.60
73643;DHT22;61938;48.652;9.292;2022-08-21T12:56:56;25.50;93.00
73643;DHT22;61938;48.652;9.292;2022-08-21T12:59:22;25.40;92.10
73643;DHT22;61938;48.652;9.292;2022-08-21T13:01:50;25.40;91.50
73643;DHT22;61938;48.652;9.292;2022-08-21T13:04:20;25.40;93.00
73643;DHT22;61938;48.652;9.292;2022-08-21T13:06:52;25.40;92.70
73643;DHT22;61938;48.652;9.292;2022-08-21T13:09:19;25.40;90.20
73643;DHT22;61938;48.652;9.292;2022-08-21T13:11:47;25.40;93.60
73643;DHT22;61938;48.652;9.292;2022-08-21T13:14:29;25.50;90.60
73643;DHT22;61938;48.652;9.292;2022-08-21T13:16:57;25.30;86.30
73643;DHT22;61938;48.652;9.292;2022-08-21T13:19:23;25.10;84.80
73643;DHT22;61938;48.652;9.292;2022-08-21T13:21:50;25.10;83.50
73643;DHT22;61938;48.652;9.292;2022-08-21T13:26:46;25.30;87.70
73643;DHT22;61938;48.652;9.292;2022-08-21T13:29:15;25.30;91.40
73643;DHT22;61938;48.652;9.292;2022-08-21T13:31:49;25.30;84.50
73643;DHT22;61938;48.652;9.292;2022-08-21T13:34:20;25.20;83.80
73643;DHT22;61938;48.652;9.292;2022-08-21T13:36:47;25.30;88.90
73643;DHT22;61938;48.652;9.292;2022-08-21T13:39:18;25.50;84.90
73643;DHT22;61938;48.652;9.292;2022-08-21T13:41:46;25.50;82.70
73643;DHT22;61938;48.652;9.292;2022-08-21T13:46:41;25.40;76.90
73643;DHT22;61938;48.652;9.292;2022-08-21T13:49:09;25.40;80.40
73643;DHT22;61938;48.652;9.292;2022-08-21T13:51:36;25.50;76.50
73643;DHT22;61938;48.652;9.292;2022-08-21T13:54:13;25.80;86.60
73643;DHT22;61938;48.652;9.292;2022-08-21T13:56:45;25.80;81.40
73643;DHT22;61938;48.652;9.292;2022-08-21T13:59:27;25.80;80.40
73643;DHT22;61938;48.652;9.292;2022-08-21T14:01:57;25.90;78.40
73643;DHT22;61938;48.652;9.292;2022-08-21T14:04:51;25.70;78.20
73643;DHT22;61938;48.652;9.292;2022-08-21T14:07:28;25.80;81.40
73643;DHT22;61938;48.652;9.292;2022-08-21T14:09:55;25.80;75.40
73643;DHT22;61938;48.652;9.292;2022-08-21T14:12:31;25.80;77.50
73643;DHT22;61938;48.652;9.292;2022-08-21T14:15:03;25.60;76.10
73643;DHT22;61938;48.652;9.292;2022-08-21T14:17:38;25.50;74.80
73643;DHT22;61938;48.652;9.292;2022-08-21T14:20:13;25.40;76.40
73643;DHT22;61938;48.652;9.292;2022-08-21T14:22:50;25.40;80.20
73643;DHT22;61938;48.652;9.292;2022-08-21T14:30:37;25.30;79.20
73643;DHT22;61938;48.652;9.292;2022-08-21T14:33:07;25.40;77.70
73643;DHT22;61938;48.652;9.292;2022-08-21T14:35:34;25.70;77.20
73643;DHT22;61938;48.652;9.292;2022-08-21T14:38:00;25.60;79.50
73643;DHT22;61938;48.652;9.292;2022-08-21T14:40:26;25.60;76.80
73643;DHT22;61938;48.652;9.292;2022-08-21T14:42:53;25.60;76.60
73643;DHT22;61938;48.652;9.292;2022-08-21T14:45:26;25.70;77.50
73643;DHT22;61938;48.652;9.292;2022-08-21T14:47:52;25.70;79.40
73643;DHT22;61938;48.652;9.292;2022-08-21T14:50:18;25.90;79.20
73643;DHT22;61938;48.652;9.292;2022-08-21T14:52:45;25.80;78.10
73643;DHT22;61938;48.652;9.292;2022-08-21T14:55:12;25.80;78.20
73643;DHT22;61938;48.652;9.292;2022-08-21T14:57:45;25.90;78.20
73643;DHT22;61938;48.652;9.292;2022-08-21T15:00:13;26.00;77.70
73643;DHT22;61938;48.652;9.292;2022-08-21T15:02:40;25.90;80.20
73643;DHT22;61938;48.652;9.292;2022-08-21T15:05:06;25.90;78.90
73643;DHT22;61938;48.652;9.292;2022-08-21T15:07:32;25.90;74.40
73643;DHT22;61938;48.652;9.292;2022-08-21T15:09:58;25.90;74.50
73643;DHT22;61938;48.652;9.292;2022-08-21T15:12:24;25.80;74.20
73643;DHT22;61938;48.652;9.292;2022-08-21T15:14:50;25.90;71.50
73643;DHT22;61938;48.652;9.292;2022-08-21T15:17:17;25.80;70.40
73643;DHT22;61938;48.652;9.292;2022-08-21T15:19:42;25.70;70.80
73643;DHT22;61938;48.652;9.292;2022-08-21T15:22:08;25.60;72.40
73643;DHT22;61938;48.652;9.292;2022-08-21T15:24:34;25.50;74.70
73643;DHT22;61938;48.652;9.292;2022-08-21T15:27:02;25.50;72.00
73643;DHT22;61938;48.652;9.292;2022-08-21T15:29:30;25.40;75.60
73643;DHT22;61938;48.652;9.292;2022-08-21T15:32:22;25.30;71.60
73643;DHT22;61938;48.652;9.292;2022-08-21T15:34:49;25.20;71.90
73643;DHT22;61938;48.652;9.292;2022-08-21T15:37:15;25.20;75.40
73643;DHT22;61938;48.652;9.292;2022-08-21T15:39:41;25.10;72.40
73643;DHT22;61938;48.652;9.292;2022-08-21T15:42:06;25.10;75.30
73643;DHT22;61938;48.652;9.292;2022-08-21T15:44:33;25.00;72.20
73643;DHT22;61938;48.652;9.292;2022-08-21T15:46:59;24.90;74.60
73643;DHT22;61938;48.652;9.292;2022-08-21T15:49:25;24.90;70.80
73643;DHT22;61938;48.652;9.292;2022-08-21T15:51:50;25.00;72.80
73643;DHT22;61938;48.652;9.292;2022-08-21T15:54:16;24.90;73.20
73643;DHT22;61938;48.652;9.292;2022-08-21T15:56:44;25.00;74.30
73643;DHT22;61938;48.652;9.292;2022-08-21T15:59:18;24.90;72.60
73643;DHT22;61938;48.652;9.292;2022-08-21T16:01:45;24.90;69.50
73643;DHT22;61938;48.652;9.292;2022-08-21T16:04:24;24.80;70.40
73643;DHT22;61938;48.652;9.292;2022-08-21T16:06:51;24.80;71.20
73643;DHT22;61938;48.652;9.292;2022-08-21T16:09:17;24.80;70.70
73643;DHT22;61938;48.652;9.292;2022-08-21T16:11:43;24.80;69.90
73643;DHT22;61938;48.652;9.292;2022-08-21T16:14:12;24.70;68.40
73643;DHT22;61938;48.652;9.292;2022-08-21T16:16:38;24.60;70.60
73643;DHT22;61938;48.652;9.292;2022-08-21T16:19:04;24.60;67.10
73643;DHT22;61938;48.652;9.292;2022-08-21T16:21:32;24.50;72.40
73643;DHT22;61938;48.652;9.292;2022-08-21T16:23:58;24.50;75.10
73643;DHT22;61938;48.652;9.292;2022-08-21T16:26:24;24.50;73.60
73643;DHT22;61938;48.652;9.292;2022-08-21T16:28:52;24.40;71.30
73643;DHT22;61938;48.652;9.292;2022-08-21T16:31:19;24.40;72.30
73643;DHT22;61938;48.652;9.292;2022-08-21T16:33:49;24.30;74.80
73643;DHT22;61938;48.652;9.292;2022-08-21T16:36:16;24.20;73.70
73643;DHT22;61938;48.652;9.292;2022-08-21T16:38:41;24.20;73.10
73643;DHT22;61938;48.652;9.292;2022-08-21T16:41:11;24.20;73.00
73643;DHT22;61938;48.652;9.292;2022-08-21T16:43:38;24.20;72.20
73643;DHT22;61938;48.652;9.292;2022-08-21T16:46:05;24.20;73.00
73643;DHT22;61938;48.652;9.292;2022-08-21T16:48:32;24.20;73.30
73643;DHT22;61938;48.652;9.292;2022-08-21T16:50:57;24.10;71.00
73643;DHT22;61938;48.652;9.292;2022-08-21T16:53:23;24.10;70.80
73643;DHT22;61938;48.652;9.292;2022-08-21T16:55:50;24.10;71.50
73643;DHT22;61938;48.652;9.292;2022-08-21T16:58:25;24.00;72.40
73643;DHT22;61938;48.652;9.292;2022-08-21T17:00:51;24.00;72.40
73643;DHT22;61938;48.652;9.292;2022-08-21T17:03:19;24.00;71.00
73643;DHT22;61938;48.652;9.292;2022-08-21T17:05:47;24.00;73.10
73643;DHT22;61938;48.652;9.292;2022-08-21T17:08:13;24.00;72.20
73643;DHT22;61938;48.652;9.292;2022-08-21T17:10:43;23.90;72.70
73643;DHT22;61938;48.652;9.292;2022-08-21T17:13:09;23.90;73.90
73643;DHT22;61938;48.652;9.292;2022-08-21T17:15:36;23.90;73.90
73643;DHT22;61938;48.652;9.292;2022-08-21T17:18:04;23.80;75.10